createdAt,value
2019-03-19T00:02:58.016Z,4.57
2019-03-19T00:06:01.692Z,4.73
2019-03-19T00:09:07.262Z,4.47
2019-03-19T00:12:10.913Z,4.27
2019-03-19T00:15:14.604Z,4.62
2019-03-19T00:18:18.278Z,4.33
2019-03-19T00:21:22.125Z,4.40
2019-03-19T00:24:25.878Z,4.43
2019-03-19T00:27:29.543Z,4.87
2019-03-19T00:30:33.223Z,4.77
2019-03-19T00:33:36.864Z,4.27
2019-03-19T00:36:40.865Z,3.97
2019-03-19T00:39:44.537Z,4.10
2019-03-19T00:42:48.208Z,4.70
2019-03-19T00:45:52.351Z,4.70
2019-03-19T00:48:55.996Z,4.23
2019-03-19T00:51:59.669Z,3.80
2019-03-19T00:55:03.625Z,4.40
2019-03-19T00:58:07.314Z,5.07
2019-03-19T01:01:11.326Z,4.10
2019-03-19T01:04:15.079Z,4.50
2019-03-19T01:07:19.813Z,4.47
2019-03-19T01:10:23.577Z,4.60
2019-03-19T01:13:27.496Z,4.10
2019-03-19T01:16:31.546Z,4.03
2019-03-19T01:19:35.285Z,4.40
2019-03-19T01:22:39.204Z,4.40
2019-03-19T01:25:54.820Z,3.83
2019-03-19T01:28:48.286Z,3.87
2019-03-19T01:31:52.074Z,4.30
2019-03-19T01:34:56.141Z,4.03
2019-03-19T01:37:59.813Z,4.30
2019-03-19T01:41:03.602Z,4.00
2019-03-19T01:44:07.609Z,4.07
2019-03-19T01:47:11.388Z,4.40
2019-03-19T01:50:15.273Z,4.50
2019-03-19T01:53:18.946Z,4.20
2019-03-19T01:56:22.719Z,3.90
2019-03-19T01:59:26.376Z,4.20
2019-03-19T02:02:30.077Z,3.87
2019-03-19T02:05:33.759Z,4.70
2019-03-19T02:08:37.412Z,4.03
2019-03-19T02:11:41.194Z,4.40
2019-03-19T02:14:44.867Z,4.70
2019-03-19T02:17:48.553Z,4.37
2019-03-19T02:20:52.215Z,5.40
2019-03-19T02:23:56.129Z,4.10
2019-03-19T02:26:59.841Z,4.30
2019-03-19T02:30:04.433Z,3.90
2019-03-19T02:33:08.189Z,4.20
2019-03-19T02:36:11.937Z,4.60
2019-03-19T02:39:15.660Z,4.37
2019-03-19T02:42:19.416Z,4.70
2019-03-19T02:45:23.053Z,4.50
2019-03-19T02:48:26.822Z,4.10
2019-03-19T02:51:30.462Z,4.75
2019-03-19T02:54:34.151Z,4.50
2019-03-19T02:57:37.840Z,4.70
2019-03-19T03:00:41.513Z,4.23
2019-03-19T03:03:45.302Z,4.80
2019-03-19T03:06:49.046Z,4.23
2019-03-19T03:09:52.705Z,4.47
2019-03-19T03:12:56.582Z,4.73
2019-03-19T03:16:00.530Z,4.60
2019-03-19T03:19:04.428Z,4.60
2019-03-19T03:22:08.096Z,4.03
2019-03-19T03:25:11.905Z,4.50
2019-03-19T03:28:15.696Z,4.23
2019-03-19T03:31:19.521Z,4.57
2019-03-19T03:34:23.280Z,5.03
2019-03-19T03:37:26.988Z,5.20
2019-03-19T03:40:30.691Z,4.93
2019-03-19T03:43:34.462Z,4.67
2019-03-19T03:46:38.135Z,4.43
2019-03-19T03:49:41.869Z,4.53
2019-03-19T03:52:45.573Z,4.33
2019-03-19T03:55:49.291Z,4.30
2019-03-19T03:59:00.673Z,3.97
2019-03-19T04:01:58.413Z,4.53
2019-03-19T04:05:02.182Z,4.30
2019-03-19T04:08:05.935Z,4.70
2019-03-19T04:11:09.722Z,6.10
2019-03-19T04:14:13.418Z,4.43
2019-03-19T04:17:17.113Z,4.30
2019-03-19T04:20:21.763Z,4.33
2019-03-19T04:23:25.789Z,4.20
2019-03-19T04:26:29.508Z,4.77
2019-03-19T04:29:33.188Z,4.93
2019-03-19T04:32:36.875Z,4.50
2019-03-19T04:35:42.246Z,4.20
2019-03-19T04:38:46.229Z,4.93
2019-03-19T04:41:50.209Z,4.37
2019-03-19T04:44:53.926Z,4.17
2019-03-19T04:47:57.950Z,4.53
2019-03-19T04:51:01.657Z,4.77
2019-03-19T04:54:05.373Z,5.17
2019-03-19T04:57:09.434Z,4.42
2019-03-19T05:00:13.341Z,4.45
2019-03-19T05:03:17.042Z,4.62
2019-03-19T05:06:20.814Z,4.23
2019-03-19T05:09:24.496Z,4.43
2019-03-19T05:12:28.177Z,4.30
2019-03-19T05:15:31.920Z,4.67
2019-03-19T05:18:35.844Z,4.30
2019-03-19T05:21:39.539Z,4.30
2019-03-19T05:24:43.260Z,4.30
2019-03-19T05:27:46.992Z,4.57
2019-03-19T05:30:50.674Z,4.57
2019-03-19T05:33:54.381Z,4.60
2019-03-19T05:36:58.328Z,4.00
2019-03-19T05:40:02.001Z,4.60
2019-03-19T05:43:05.665Z,4.13
2019-03-19T05:46:09.309Z,4.40
2019-03-19T05:49:13.018Z,4.80
2019-03-19T05:52:16.724Z,4.77
2019-03-19T05:55:20.485Z,4.13
2019-03-19T05:58:24.186Z,5.20
2019-03-19T06:01:28.125Z,4.65
2019-03-19T06:04:32.123Z,5.33
2019-03-19T06:07:35.813Z,5.17
2019-03-19T06:10:39.515Z,4.37
2019-03-19T06:13:43.205Z,4.70
2019-03-19T06:16:47.653Z,3.93
2019-03-19T06:19:51.626Z,4.07
2019-03-19T06:22:55.297Z,4.00
2019-03-19T06:25:59.006Z,4.90
2019-03-19T06:29:02.762Z,4.20
2019-03-19T06:32:07.026Z,4.10
2019-03-19T06:35:11.169Z,4.27
2019-03-19T06:38:14.916Z,4.23
2019-03-19T06:41:18.616Z,4.60
2019-03-19T06:44:22.565Z,4.07
2019-03-19T06:47:26.261Z,4.37
2019-03-19T06:50:30.141Z,4.83
2019-03-19T06:53:33.900Z,4.57
2019-03-19T06:56:37.604Z,4.57
2019-03-19T06:59:41.359Z,4.40
2019-03-19T07:02:45.057Z,3.97
2019-03-19T07:05:48.744Z,4.92
2019-03-19T07:08:52.484Z,5.67
2019-03-19T07:11:56.206Z,5.37
2019-03-19T07:14:59.865Z,4.90
2019-03-19T07:18:03.596Z,4.53
2019-03-19T07:21:07.324Z,4.47
2019-03-19T07:24:11.050Z,4.60
2019-03-19T07:27:14.703Z,4.83
2019-03-19T07:30:18.985Z,4.30
2019-03-19T07:33:22.681Z,4.87
2019-03-19T07:36:26.378Z,4.37
2019-03-19T07:39:30.172Z,4.80
2019-03-19T07:42:33.993Z,4.70
2019-03-19T07:45:37.674Z,5.00
2019-03-19T07:48:41.951Z,4.35
2019-03-19T07:51:45.787Z,5.40
2019-03-19T07:54:49.529Z,4.57
2019-03-19T07:57:53.234Z,5.03
2019-03-19T08:00:57.233Z,4.90
2019-03-19T08:04:00.884Z,4.80
2019-03-19T08:07:04.582Z,4.85
2019-03-19T08:10:08.912Z,4.93
2019-03-19T08:13:12.641Z,4.57
2019-03-19T08:16:26.791Z,5.10
2019-03-19T08:19:21.741Z,4.50
2019-03-19T08:22:25.424Z,5.47
2019-03-19T08:25:29.220Z,5.20
2019-03-19T08:28:33.806Z,4.70
2019-03-19T08:31:37.969Z,5.30
2019-03-19T08:34:41.650Z,5.43
2019-03-19T08:37:45.428Z,4.30
2019-03-19T08:40:50.998Z,4.97
2019-03-19T08:43:54.632Z,5.70
2019-03-19T08:46:58.392Z,4.63
2019-03-19T08:50:02.071Z,5.13
2019-03-19T08:53:06.349Z,4.80
2019-03-19T08:56:10.042Z,6.13
2019-03-19T08:59:13.794Z,5.20
2019-03-19T09:02:17.470Z,5.63
2019-03-19T09:05:21.313Z,5.03
2019-03-19T09:08:25.013Z,4.93
2019-03-19T09:11:28.666Z,4.60
2019-03-19T09:14:32.390Z,4.67
2019-03-19T09:17:36.147Z,4.47
2019-03-19T09:20:40.016Z,5.03
2019-03-19T09:23:43.818Z,5.33
2019-03-19T09:26:47.771Z,4.50
2019-03-19T09:29:51.488Z,4.13
2019-03-19T09:32:55.149Z,4.77
2019-03-19T09:35:58.836Z,4.50
2019-03-19T09:39:02.664Z,4.40
2019-03-19T09:42:06.342Z,4.70
2019-03-19T09:45:10.729Z,4.20
2019-03-19T09:48:14.395Z,3.70
2019-03-19T09:51:18.081Z,4.55
2019-03-19T09:54:21.881Z,4.00
2019-03-19T09:57:25.554Z,3.40
2019-03-19T10:00:29.267Z,3.87
2019-03-19T10:03:32.947Z,4.13
2019-03-19T10:06:36.613Z,3.80
2019-03-19T10:09:40.297Z,3.97
2019-03-19T10:12:44.025Z,4.27
2019-03-19T10:15:48.078Z,3.77
2019-03-19T10:18:51.821Z,4.20
2019-03-19T10:21:55.489Z,4.27
2019-03-19T10:24:59.193Z,3.93
2019-03-19T10:28:02.886Z,4.50
2019-03-19T10:31:06.646Z,3.77
2019-03-19T10:34:10.357Z,3.97
2019-03-19T10:37:14.947Z,4.27
2019-03-19T10:40:18.778Z,4.23
2019-03-19T10:43:22.562Z,3.83
2019-03-19T10:46:26.299Z,4.07
2019-03-19T10:49:30.098Z,3.50
2019-03-19T10:52:33.813Z,3.93
2019-03-19T10:55:38.521Z,3.83
2019-03-19T10:58:42.277Z,3.40
2019-03-19T11:01:45.957Z,3.42
2019-03-19T11:04:49.788Z,3.43
2019-03-19T11:07:53.737Z,3.33
2019-03-19T11:10:57.525Z,3.33
2019-03-19T11:14:01.201Z,3.30
2019-03-19T11:17:04.868Z,3.30
2019-03-19T11:20:09.843Z,3.30
2019-03-19T11:23:13.826Z,3.87
2019-03-19T11:26:17.632Z,3.23
2019-03-19T11:29:21.390Z,3.50
2019-03-19T11:32:25.133Z,4.10
2019-03-19T11:35:28.993Z,3.60
2019-03-19T11:38:32.736Z,3.30
2019-03-19T11:41:36.541Z,3.30
2019-03-19T11:44:41.944Z,2.93
2019-03-19T11:47:46.033Z,3.70
2019-03-19T11:50:49.779Z,3.30
2019-03-19T11:53:53.815Z,3.03
2019-03-19T11:56:57.545Z,3.60
2019-03-19T12:00:10.730Z,3.30
2019-03-19T12:03:15.478Z,3.17
2019-03-19T12:06:12.996Z,3.70
2019-03-19T12:09:16.702Z,3.80
2019-03-19T12:12:20.425Z,3.17
2019-03-19T12:15:24.100Z,3.70
2019-03-19T12:18:27.925Z,3.03
2019-03-19T12:21:31.627Z,3.47
2019-03-19T12:24:35.308Z,3.63
2019-03-19T12:27:39.255Z,3.35
2019-03-19T12:30:42.926Z,3.67
2019-03-19T12:33:46.629Z,2.77
2019-03-19T12:36:50.352Z,3.07
2019-03-19T12:39:54.037Z,3.87
2019-03-19T12:42:57.757Z,3.00
2019-03-19T12:46:01.438Z,2.93
2019-03-19T12:49:07.355Z,3.70
2019-03-19T12:52:11.245Z,3.77
2019-03-19T12:55:15.024Z,3.42
2019-03-19T12:58:18.811Z,3.47
2019-03-19T13:01:22.555Z,3.83
2019-03-19T13:04:26.367Z,3.53
2019-03-19T13:07:30.297Z,3.07
2019-03-19T13:10:34.124Z,3.03
2019-03-19T13:13:40.868Z,3.37
2019-03-19T13:16:44.676Z,3.27
2019-03-19T13:19:48.425Z,3.12
2019-03-19T13:22:52.360Z,3.30
2019-03-19T13:25:56.914Z,2.93
2019-03-19T13:29:00.616Z,3.17
2019-03-19T13:32:04.388Z,3.57
2019-03-19T13:35:08.537Z,3.17
2019-03-19T13:38:12.769Z,3.20
2019-03-19T13:41:16.675Z,3.03
2019-03-19T13:44:20.350Z,3.27
2019-03-19T13:47:24.032Z,3.33
2019-03-19T13:50:27.834Z,3.17
2019-03-19T13:53:32.436Z,3.43
2019-03-19T13:56:36.203Z,3.63
2019-03-19T13:59:39.881Z,3.17
2019-03-19T14:02:44.146Z,2.97
2019-03-19T14:05:48.209Z,3.23
2019-03-19T14:08:51.973Z,3.17
2019-03-19T14:11:55.792Z,3.33
2019-03-19T14:15:00.380Z,3.27
2019-03-19T14:18:04.238Z,3.67
2019-03-19T14:21:07.950Z,3.43
2019-03-19T14:24:11.673Z,3.40
2019-03-19T14:27:15.753Z,2.70
2019-03-19T14:30:19.618Z,3.30
2019-03-19T14:33:23.362Z,3.07
2019-03-19T14:36:27.077Z,3.58
2019-03-19T14:39:30.769Z,3.40
2019-03-19T14:42:34.654Z,3.67
2019-03-19T14:45:38.402Z,3.33
2019-03-19T14:48:42.133Z,3.73
2019-03-19T14:51:46.050Z,3.50
2019-03-19T14:54:49.772Z,3.00
2019-03-19T14:57:53.718Z,2.87
2019-03-19T15:00:57.411Z,3.53
2019-03-19T15:04:01.109Z,3.20
2019-03-19T15:07:04.910Z,2.97
2019-03-19T15:10:11.187Z,3.53
2019-03-19T15:13:14.907Z,3.30
2019-03-19T15:16:18.569Z,2.97
2019-03-19T15:19:22.662Z,3.67
2019-03-19T15:22:32.527Z,3.00
2019-03-19T15:25:31.847Z,3.40
2019-03-19T15:28:35.685Z,2.97
2019-03-19T15:31:39.620Z,3.30
2019-03-19T15:34:43.268Z,3.00
2019-03-19T15:37:47.162Z,3.40
2019-03-19T15:40:50.837Z,3.27
2019-03-19T15:43:54.557Z,3.10
2019-03-19T15:46:58.245Z,3.47
2019-03-19T15:50:01.941Z,3.20
2019-03-19T15:53:05.917Z,3.13
2019-03-19T15:56:09.630Z,3.77
2019-03-19T15:59:14.263Z,3.30
2019-03-19T16:02:17.977Z,3.57
2019-03-19T16:05:21.675Z,3.43
2019-03-19T16:08:25.437Z,3.23
2019-03-19T16:11:29.116Z,3.07
2019-03-19T16:14:32.829Z,3.40
2019-03-19T16:17:36.509Z,3.30
2019-03-19T16:20:40.198Z,3.07
2019-03-19T16:23:44.234Z,3.50
2019-03-19T16:26:47.887Z,3.70
2019-03-19T16:29:51.620Z,3.40
2019-03-19T16:32:55.521Z,3.70
2019-03-19T16:35:59.215Z,3.33
2019-03-19T16:39:03.896Z,3.10
2019-03-19T16:42:07.544Z,3.07
2019-03-19T16:45:11.996Z,3.77
2019-03-19T16:48:15.664Z,3.33
2019-03-19T16:51:19.384Z,3.77
2019-03-19T16:54:23.114Z,3.47
2019-03-19T16:57:26.853Z,3.10
2019-03-19T17:00:30.674Z,3.53
2019-03-19T17:03:34.438Z,4.10
2019-03-19T17:06:38.152Z,3.60
2019-03-19T17:09:41.824Z,3.10
2019-03-19T17:12:45.638Z,3.23
2019-03-19T17:15:49.421Z,3.40
2019-03-19T17:18:53.689Z,3.23
2019-03-19T17:21:57.389Z,3.90
2019-03-19T17:25:01.053Z,3.57
2019-03-19T17:28:05.229Z,3.57
2019-03-19T17:31:08.989Z,3.53
2019-03-19T17:34:12.713Z,3.60
2019-03-19T17:37:16.408Z,3.33
2019-03-19T17:40:20.116Z,3.70
2019-03-19T17:43:23.917Z,3.27
2019-03-19T17:46:27.706Z,3.70
2019-03-19T17:49:32.039Z,3.45
2019-03-19T17:52:35.756Z,4.30
2019-03-19T17:55:39.484Z,4.13
2019-03-19T17:58:44.750Z,4.00
2019-03-19T18:01:48.421Z,3.60
2019-03-19T18:04:52.369Z,3.90
2019-03-19T18:07:57.849Z,4.20
2019-03-19T18:11:01.672Z,4.30
2019-03-19T18:14:05.841Z,5.30
2019-03-19T18:17:09.522Z,4.20
2019-03-19T18:20:13.487Z,3.80
2019-03-19T18:23:17.196Z,4.37
2019-03-19T18:26:21.236Z,4.23
2019-03-19T18:29:25.025Z,4.27
2019-03-19T18:32:34.974Z,4.17
2019-03-19T18:35:34.530Z,4.30
2019-03-19T18:38:38.229Z,4.10
2019-03-19T18:41:44.263Z,4.20
2019-03-19T18:44:47.353Z,4.87
2019-03-19T18:47:51.320Z,4.23
2019-03-19T18:50:55.008Z,3.37
2019-03-19T18:53:58.737Z,4.60
2019-03-19T18:57:02.424Z,3.57
2019-03-19T19:00:07.332Z,4.50
2019-03-19T19:03:11.080Z,6.07
2019-03-19T19:06:14.776Z,4.30
2019-03-19T19:09:18.478Z,4.20
2019-03-19T19:12:22.171Z,4.43
2019-03-19T19:15:25.971Z,4.43
2019-03-19T19:18:30.245Z,4.20
2019-03-19T19:21:33.880Z,4.40
2019-03-19T19:24:37.618Z,3.93
2019-03-19T19:27:41.282Z,3.60
2019-03-19T19:30:45.197Z,5.12
2019-03-19T19:33:48.974Z,5.60
2019-03-19T19:36:53.716Z,5.13
2019-03-19T19:39:57.694Z,4.78
2019-03-19T19:43:01.430Z,4.20
2019-03-19T19:46:05.125Z,4.70
2019-03-19T19:49:08.954Z,4.63
2019-03-19T19:52:12.621Z,4.53
2019-03-19T19:55:16.456Z,4.53
2019-03-19T19:58:20.145Z,4.10
2019-03-19T20:01:23.852Z,4.33
2019-03-19T20:04:27.685Z,4.00
2019-03-19T20:07:31.332Z,4.80
2019-03-19T20:10:35.055Z,4.40
2019-03-19T20:13:38.795Z,4.37
2019-03-19T20:16:42.590Z,3.97
2019-03-19T20:19:46.333Z,4.40
2019-03-19T20:22:50.391Z,4.40
2019-03-19T20:25:54.069Z,4.80
2019-03-19T20:28:57.826Z,6.12
2019-03-19T20:32:01.919Z,5.47
2019-03-19T20:35:06.816Z,5.53
2019-03-19T20:38:10.550Z,5.80
2019-03-19T20:41:14.791Z,5.83
2019-03-19T20:44:18.498Z,5.77
2019-03-19T20:47:22.329Z,5.40
2019-03-19T20:50:27.287Z,5.50
2019-03-19T20:53:31.227Z,6.53
2019-03-19T20:56:34.920Z,5.87
2019-03-19T20:59:38.746Z,6.93
2019-03-19T21:02:42.437Z,6.00
2019-03-19T21:05:46.106Z,6.00
2019-03-19T21:08:50.095Z,5.53
2019-03-19T21:11:53.778Z,7.53
2019-03-19T21:14:57.510Z,6.43
2019-03-19T21:18:01.203Z,6.00
2019-03-19T21:21:05.846Z,6.27
2019-03-19T21:24:09.899Z,6.10
2019-03-19T21:27:13.951Z,6.50
2019-03-19T21:30:18.160Z,5.83
2019-03-19T21:33:21.891Z,6.00
2019-03-19T21:36:25.798Z,5.97
2019-03-19T21:39:29.596Z,6.00
2019-03-19T21:42:33.354Z,6.03
2019-03-19T21:45:37.218Z,5.17
2019-03-19T21:48:40.897Z,5.70
2019-03-19T21:51:44.714Z,5.37
2019-03-19T21:54:48.422Z,5.30
2019-03-19T21:57:52.124Z,4.77
2019-03-19T22:00:55.858Z,5.20
2019-03-19T22:04:03.260Z,4.57
2019-03-19T22:07:05.038Z,5.17
2019-03-19T22:10:11.021Z,5.10
2019-03-19T22:13:14.702Z,4.50
2019-03-19T22:16:18.681Z,5.10
2019-03-19T22:19:23.174Z,4.80
2019-03-19T22:22:27.358Z,5.60
2019-03-19T22:25:31.362Z,4.87
2019-03-19T22:28:35.106Z,4.73
2019-03-19T22:31:38.805Z,4.80
2019-03-19T22:34:42.855Z,4.67
2019-03-19T22:37:46.621Z,4.50
2019-03-19T22:40:50.289Z,4.77
2019-03-19T22:43:54.039Z,5.35
2019-03-19T22:46:57.826Z,4.73
2019-03-19T22:50:01.540Z,4.50
2019-03-19T22:53:05.605Z,5.37
2019-03-19T22:56:09.345Z,4.87
2019-03-19T22:59:13.309Z,5.50
2019-03-19T23:02:17.110Z,5.47
2019-03-19T23:05:20.888Z,5.20
2019-03-19T23:08:24.933Z,5.70
2019-03-19T23:11:28.586Z,5.27
2019-03-19T23:14:32.273Z,5.27
2019-03-19T23:17:36.021Z,4.83
2019-03-19T23:20:39.757Z,4.20
2019-03-19T23:23:43.865Z,4.90
2019-03-19T23:26:47.654Z,4.87
2019-03-19T23:29:51.381Z,4.67
2019-03-19T23:32:55.258Z,4.57
2019-03-19T23:35:58.910Z,4.47
2019-03-19T23:39:02.612Z,4.53
2019-03-19T23:42:06.601Z,4.80
2019-03-19T23:45:10.978Z,5.07
2019-03-19T23:48:15.016Z,4.40
2019-03-19T23:51:18.699Z,4.53
2019-03-19T23:54:22.390Z,4.43
2019-03-19T23:57:26.578Z,4.58
